createdAt,value
2018-10-03T00:02:15.433Z,47.27
2018-10-03T00:04:44.098Z,47.53
2018-10-03T00:07:12.645Z,44.54
2018-10-03T00:09:41.079Z,44.93
2018-10-03T00:12:09.568Z,45.38
2018-10-03T00:14:37.898Z,44.06
2018-10-03T00:17:06.390Z,43.99
2018-10-03T00:19:35.038Z,44.68
2018-10-03T00:22:03.316Z,43.86
2018-10-03T00:24:31.698Z,43.67
2018-10-03T00:26:59.995Z,43.47
2018-10-03T00:29:28.338Z,43.67
2018-10-03T00:31:56.665Z,45.78
2018-10-03T00:34:25.166Z,44.24
2018-10-03T00:36:53.425Z,44.84
2018-10-03T00:39:21.733Z,44.11
2018-10-03T00:41:50.028Z,44.06
2018-10-03T00:44:18.392Z,46.44
2018-10-03T00:46:46.729Z,47.63
2018-10-03T00:49:15.024Z,45.78
2018-10-03T00:51:43.421Z,46.76
2018-10-03T00:54:11.898Z,45.30
2018-10-03T00:56:40.208Z,45.74
2018-10-03T00:59:08.603Z,46.52
2018-10-03T01:01:36.860Z,49.07
2018-10-03T01:04:05.203Z,47.41
2018-10-03T01:06:33.495Z,48.11
2018-10-03T01:09:01.816Z,47.74
2018-10-03T01:11:30.171Z,47.58
2018-10-03T01:13:58.631Z,50.12
2018-10-03T01:16:26.949Z,48.17
2018-10-03T01:18:55.279Z,49.12
2018-10-03T01:21:23.661Z,46.62
2018-10-03T01:23:51.970Z,47.25
2018-10-03T01:26:20.256Z,47.70
2018-10-03T01:28:48.588Z,47.10
2018-10-03T01:31:16.937Z,48.99
2018-10-03T01:33:45.292Z,48.35
2018-10-03T01:36:13.597Z,48.96
2018-10-03T01:38:41.994Z,48.79
2018-10-03T01:41:10.343Z,46.53
2018-10-03T01:43:38.653Z,48.15
2018-10-03T01:46:07.098Z,46.65
2018-10-03T01:48:35.806Z,48.08
2018-10-03T01:51:04.164Z,48.51
2018-10-03T01:53:32.512Z,47.25
2018-10-03T01:56:00.881Z,48.37
2018-10-03T01:58:29.368Z,48.59
2018-10-03T02:00:57.668Z,46.75
2018-10-03T02:03:25.962Z,47.80
2018-10-03T02:05:54.354Z,47.54
2018-10-03T02:08:22.677Z,47.30
2018-10-03T02:10:51.029Z,46.45
2018-10-03T02:13:19.368Z,47.46
2018-10-03T02:15:47.713Z,47.38
2018-10-03T02:18:16.266Z,48.33
2018-10-03T02:20:44.615Z,47.68
2018-10-03T02:23:13.012Z,48.46
2018-10-03T02:25:41.392Z,49.70
2018-10-03T02:28:09.661Z,50.03
2018-10-03T02:30:37.966Z,50.11
2018-10-03T02:33:06.279Z,51.01
2018-10-03T02:35:34.610Z,50.91
2018-10-03T02:38:02.978Z,49.54
2018-10-03T02:40:31.367Z,49.11
2018-10-03T02:42:59.730Z,51.38
2018-10-03T02:45:28.028Z,50.76
2018-10-03T02:47:56.343Z,49.85
2018-10-03T02:50:24.779Z,49.18
2018-10-03T02:52:53.098Z,51.05
2018-10-03T02:55:21.407Z,49.63
2018-10-03T02:57:49.700Z,49.13
2018-10-03T03:00:18.192Z,49.90
2018-10-03T03:02:46.594Z,49.35
2018-10-03T03:05:15.956Z,48.86
2018-10-03T03:07:44.276Z,48.48
2018-10-03T03:10:12.748Z,48.20
2018-10-03T03:12:41.053Z,48.74
2018-10-03T03:15:09.479Z,49.36
2018-10-03T03:17:37.840Z,48.43
2018-10-03T03:20:06.271Z,48.90
2018-10-03T03:22:34.557Z,47.75
2018-10-03T03:25:02.975Z,48.48
2018-10-03T03:27:31.480Z,49.86
2018-10-03T03:29:59.736Z,49.07
2018-10-03T03:32:28.448Z,51.13
2018-10-03T03:34:56.761Z,51.58
2018-10-03T03:37:25.217Z,49.70
2018-10-03T03:39:53.696Z,51.05
2018-10-03T03:42:22.182Z,50.20
2018-10-03T03:44:50.855Z,50.03
2018-10-03T03:47:19.181Z,51.13
2018-10-03T03:49:47.447Z,49.54
2018-10-03T03:52:15.807Z,49.52
2018-10-03T03:54:44.080Z,50.39
2018-10-03T03:57:12.559Z,50.63
2018-10-03T03:59:42.125Z,50.41
2018-10-03T04:02:10.426Z,51.01
2018-10-03T04:04:38.786Z,51.73
2018-10-03T04:07:07.253Z,50.91
2018-10-03T04:09:36.075Z,52.68
2018-10-03T04:12:04.428Z,52.89
2018-10-03T04:14:32.729Z,53.33
2018-10-03T04:17:01.007Z,53.26
2018-10-03T04:19:29.270Z,53.41
2018-10-03T04:21:57.587Z,52.85
2018-10-03T04:24:25.964Z,52.40
2018-10-03T04:26:54.381Z,52.51
2018-10-03T04:29:22.717Z,52.83
2018-10-03T04:31:51.071Z,52.62
2018-10-03T04:34:19.553Z,53.18
2018-10-03T04:36:47.962Z,51.83
2018-10-03T04:39:16.400Z,50.85
2018-10-03T04:41:44.878Z,51.23
2018-10-03T04:44:13.192Z,50.43
2018-10-03T04:46:41.520Z,51.13
2018-10-03T04:49:10.105Z,51.41
2018-10-03T04:51:38.355Z,50.89
2018-10-03T04:54:06.872Z,50.14
2018-10-03T04:56:35.146Z,50.23
2018-10-03T04:59:03.548Z,52.03
2018-10-03T05:01:31.977Z,50.07
2018-10-03T05:04:00.324Z,51.29
2018-10-03T05:06:28.858Z,51.05
2018-10-03T05:08:57.402Z,51.65
2018-10-03T05:11:25.939Z,51.73
2018-10-03T05:13:54.404Z,50.53
2018-10-03T05:16:22.780Z,48.98
2018-10-03T05:18:51.100Z,49.22
2018-10-03T05:21:19.652Z,48.51
2018-10-03T05:23:48.231Z,49.20
2018-10-03T05:26:17.341Z,50.40
2018-10-03T05:28:45.637Z,50.09
2018-10-03T05:31:14.080Z,50.69
2018-10-03T05:33:42.466Z,48.53
2018-10-03T05:36:10.810Z,50.21
2018-10-03T05:38:39.349Z,50.44
2018-10-03T05:41:07.676Z,49.96
2018-10-03T05:43:35.987Z,50.01
2018-10-03T05:46:04.371Z,48.66
2018-10-03T05:48:32.665Z,49.87
2018-10-03T05:51:00.886Z,48.11
2018-10-03T05:53:29.202Z,48.68
2018-10-03T05:55:57.524Z,48.56
2018-10-03T05:58:25.860Z,48.98
2018-10-03T06:00:54.285Z,48.16
2018-10-03T06:03:22.760Z,47.51
2018-10-03T06:05:51.021Z,48.42
2018-10-03T06:08:19.419Z,48.71
2018-10-03T06:10:47.819Z,46.60
2018-10-03T06:13:16.220Z,48.56
2018-10-03T06:15:44.928Z,50.63
2018-10-03T06:18:13.485Z,50.11
2018-10-03T06:20:41.969Z,47.26
2018-10-03T06:23:10.352Z,48.55
2018-10-03T06:25:38.736Z,46.87
2018-10-03T06:28:07.089Z,47.90
2018-10-03T06:30:35.608Z,47.52
2018-10-03T06:33:03.939Z,47.26
2018-10-03T06:35:32.680Z,48.86
2018-10-03T06:38:01.148Z,46.85
2018-10-03T06:40:29.430Z,45.62
2018-10-03T06:42:58.536Z,46.64
2018-10-03T06:45:27.225Z,47.92
2018-10-03T06:47:56.595Z,46.48
2018-10-03T06:50:25.827Z,48.17
2018-10-03T06:52:54.252Z,50.20
2018-10-03T06:55:22.646Z,50.85
2018-10-03T06:57:50.960Z,51.44
2018-10-03T07:00:19.511Z,50.23
2018-10-03T07:02:47.930Z,51.00
2018-10-03T07:05:16.496Z,52.79
2018-10-03T07:07:44.857Z,52.48
2018-10-03T07:10:13.432Z,52.16
2018-10-03T07:12:41.899Z,52.32
2018-10-03T07:15:10.495Z,54.20
2018-10-03T07:17:38.904Z,55.49
2018-10-03T07:20:07.527Z,56.46
2018-10-03T07:22:35.876Z,54.79
2018-10-03T07:25:04.430Z,55.87
2018-10-03T07:27:32.909Z,57.29
2018-10-03T07:30:01.366Z,57.09
2018-10-03T07:32:30.426Z,58.27
2018-10-03T07:34:58.813Z,56.82
2018-10-03T07:37:27.118Z,55.33
2018-10-03T07:39:56.906Z,49.09
2018-10-03T07:42:25.181Z,50.81
2018-10-03T07:44:53.488Z,52.98
2018-10-03T07:47:21.887Z,53.65
2018-10-03T07:49:50.359Z,54.26
2018-10-03T07:52:18.640Z,54.28
2018-10-03T07:54:46.939Z,55.47
2018-10-03T07:57:15.274Z,57.66
2018-10-03T07:59:43.553Z,57.59
2018-10-03T08:02:11.897Z,57.68
2018-10-03T08:04:40.389Z,55.94
2018-10-03T08:07:08.631Z,56.43
2018-10-03T08:09:36.923Z,57.14
2018-10-03T08:12:05.333Z,56.66
2018-10-03T08:14:33.633Z,55.85
2018-10-03T08:17:01.958Z,56.61
2018-10-03T08:19:30.420Z,56.62
2018-10-03T08:21:58.724Z,55.45
2018-10-03T08:24:27.168Z,53.92
2018-10-03T08:26:55.454Z,55.05
2018-10-03T08:29:23.863Z,55.79
2018-10-03T08:31:52.260Z,55.53
2018-10-03T08:34:21.212Z,55.50
2018-10-03T08:36:49.553Z,53.52
2018-10-03T08:39:18.047Z,53.18
2018-10-03T08:41:46.423Z,52.75
2018-10-03T08:44:14.703Z,53.01
2018-10-03T08:46:43.166Z,53.05
2018-10-03T08:49:11.469Z,52.97
2018-10-03T08:51:39.747Z,51.62
2018-10-03T08:54:08.003Z,50.96
2018-10-03T08:56:36.344Z,49.30
2018-10-03T08:59:04.637Z,49.39
2018-10-03T09:01:33.124Z,50.42
2018-10-03T09:04:01.772Z,50.36
2018-10-03T09:06:30.088Z,51.70
2018-10-03T09:08:58.391Z,52.26
2018-10-03T09:11:27.223Z,53.74
2018-10-03T09:13:55.737Z,50.79
2018-10-03T09:16:24.247Z,48.71
2018-10-03T09:18:52.532Z,47.82
2018-10-03T09:21:20.888Z,52.31
2018-10-03T09:23:49.264Z,52.74
2018-10-03T09:26:17.565Z,52.44
2018-10-03T09:28:45.889Z,52.77
2018-10-03T09:31:14.892Z,48.23
2018-10-03T09:33:43.317Z,47.34
2018-10-03T09:36:11.743Z,52.09
2018-10-03T09:38:40.053Z,51.60
2018-10-03T09:41:08.344Z,51.51
2018-10-03T09:43:36.651Z,49.40
2018-10-03T09:46:04.983Z,50.16
2018-10-03T09:48:33.282Z,48.42
2018-10-03T09:51:02.456Z,51.99
2018-10-03T09:53:31.145Z,50.35
2018-10-03T09:55:59.438Z,48.68
2018-10-03T09:58:27.909Z,45.52
2018-10-03T10:01:01.784Z,47.88
2018-10-03T10:03:30.453Z,46.52
2018-10-03T10:05:58.794Z,50.06
2018-10-03T10:08:27.371Z,48.88
2018-10-03T10:10:55.730Z,47.89
2018-10-03T10:13:24.250Z,49.76
2018-10-03T10:15:52.664Z,48.91
2018-10-03T10:18:21.063Z,48.25
2018-10-03T10:20:49.908Z,45.20
2018-10-03T10:23:18.290Z,44.63
2018-10-03T10:25:46.588Z,45.18
2018-10-03T10:28:15.016Z,45.49
2018-10-03T10:30:43.413Z,45.98
2018-10-03T10:33:12.092Z,46.95
2018-10-03T10:35:40.456Z,47.88
2018-10-03T10:38:08.891Z,46.01
2018-10-03T10:40:38.681Z,45.58
2018-10-03T10:43:07.377Z,45.42
2018-10-03T10:45:35.748Z,43.85
2018-10-03T10:48:04.393Z,44.10
2018-10-03T10:50:32.666Z,43.49
2018-10-03T10:53:00.968Z,44.29
2018-10-03T10:55:29.492Z,43.60
2018-10-03T10:57:57.833Z,42.72
2018-10-03T11:00:27.545Z,42.90
2018-10-03T11:02:56.156Z,43.26
2018-10-03T11:05:24.640Z,41.78
2018-10-03T11:07:53.451Z,39.81
2018-10-03T11:10:21.889Z,39.46
2018-10-03T11:12:50.373Z,37.77
2018-10-03T11:15:19.421Z,38.81
2018-10-03T11:17:47.685Z,39.83
2018-10-03T11:20:16.335Z,41.91
2018-10-03T11:22:44.690Z,38.97
2018-10-03T11:25:13.106Z,40.44
2018-10-03T11:27:41.598Z,41.07
2018-10-03T11:30:09.789Z,39.98
2018-10-03T11:32:38.283Z,37.93
2018-10-03T11:35:06.954Z,37.77
2018-10-03T11:37:35.393Z,40.08
2018-10-03T11:40:03.898Z,39.31
2018-10-03T11:42:32.196Z,39.52
2018-10-03T11:45:00.602Z,39.13
2018-10-03T11:47:29.000Z,39.46
2018-10-03T11:49:57.353Z,38.94
2018-10-03T11:52:26.546Z,40.70
2018-10-03T11:54:54.923Z,40.83
2018-10-03T11:57:23.339Z,41.30
2018-10-03T11:59:51.724Z,41.49
2018-10-03T12:02:20.070Z,40.21
2018-10-03T12:04:48.331Z,39.14
2018-10-03T12:07:16.729Z,40.22
2018-10-03T12:09:45.224Z,40.73
2018-10-03T12:12:13.547Z,40.27
2018-10-03T12:14:42.007Z,41.46
2018-10-03T12:17:10.426Z,42.28
2018-10-03T12:19:38.715Z,41.86
2018-10-03T12:22:07.110Z,43.51
2018-10-03T12:24:35.562Z,41.86
2018-10-03T12:27:03.917Z,40.53
2018-10-03T12:29:32.374Z,41.95
2018-10-03T12:32:00.756Z,41.95
2018-10-03T12:34:29.113Z,40.47
2018-10-03T12:36:57.471Z,40.50
2018-10-03T12:39:25.847Z,42.07
2018-10-03T12:41:54.506Z,41.47
2018-10-03T12:44:22.812Z,39.79
2018-10-03T12:46:51.162Z,39.57
2018-10-03T12:49:19.474Z,39.26
2018-10-03T12:51:47.781Z,40.78
2018-10-03T12:54:16.098Z,39.98
2018-10-03T12:56:44.632Z,41.29
2018-10-03T12:59:13.007Z,41.45
2018-10-03T13:01:41.521Z,40.89
2018-10-03T13:04:10.050Z,42.76
2018-10-03T13:06:38.359Z,42.64
2018-10-03T13:09:10.112Z,40.37
2018-10-03T13:11:38.369Z,39.63
2018-10-03T13:14:07.046Z,42.33
2018-10-03T13:16:35.320Z,43.59
2018-10-03T13:19:03.672Z,42.51
2018-10-03T13:21:32.163Z,44.77
2018-10-03T13:24:00.489Z,45.18
2018-10-03T13:26:28.742Z,45.14
2018-10-03T13:28:57.314Z,43.38
2018-10-03T13:31:25.720Z,42.52
2018-10-03T13:33:54.050Z,44.27
2018-10-03T13:36:22.544Z,44.84
2018-10-03T13:38:50.929Z,43.58
2018-10-03T13:41:19.199Z,43.31
2018-10-03T13:43:47.599Z,44.92
2018-10-03T13:46:15.894Z,44.34
2018-10-03T13:48:44.213Z,41.08
2018-10-03T13:51:12.664Z,40.87
2018-10-03T13:53:41.112Z,40.04
2018-10-03T13:56:09.623Z,41.87
2018-10-03T13:58:37.962Z,37.69
2018-10-03T14:01:06.352Z,37.71
2018-10-03T14:03:35.038Z,37.20
2018-10-03T14:06:03.370Z,36.45
2018-10-03T14:08:31.701Z,34.08
2018-10-03T14:11:00.012Z,33.12
2018-10-03T14:13:28.300Z,32.85
2018-10-03T14:15:56.637Z,35.50
2018-10-03T14:18:25.216Z,31.68
2018-10-03T14:20:53.501Z,30.60
2018-10-03T14:23:22.077Z,31.04
2018-10-03T14:25:50.393Z,32.23
2018-10-03T14:28:19.447Z,33.18
2018-10-03T14:30:48.150Z,35.40
2018-10-03T14:33:16.510Z,36.21
2018-10-03T14:35:44.907Z,34.34
2018-10-03T14:38:13.252Z,31.09
2018-10-03T14:40:41.604Z,31.41
2018-10-03T14:43:09.869Z,30.67
2018-10-03T14:45:38.218Z,32.38
2018-10-03T14:48:06.500Z,33.06
2018-10-03T14:50:34.929Z,31.70
2018-10-03T14:53:03.384Z,32.54
2018-10-03T14:55:31.824Z,31.92
2018-10-03T14:58:00.225Z,32.72
2018-10-03T15:00:28.604Z,30.21
2018-10-03T15:02:56.876Z,27.33
2018-10-03T15:05:25.341Z,26.31
2018-10-03T15:07:53.717Z,27.86
2018-10-03T15:10:22.141Z,25.72
2018-10-03T15:12:50.485Z,25.57
2018-10-03T15:15:18.852Z,24.84
2018-10-03T15:17:47.207Z,24.97
2018-10-03T15:20:15.649Z,23.99
2018-10-03T15:22:43.981Z,32.43
2018-10-03T15:25:12.379Z,31.18
2018-10-03T15:27:40.783Z,29.68
2018-10-03T15:30:09.241Z,31.02
2018-10-03T15:32:37.596Z,32.60
2018-10-03T15:35:05.954Z,33.63
2018-10-03T15:37:34.989Z,33.30
2018-10-03T15:40:03.387Z,32.22
2018-10-03T15:42:31.715Z,34.89
2018-10-03T15:45:00.097Z,32.97
2018-10-03T15:47:28.413Z,33.89
2018-10-03T15:49:56.892Z,33.90
2018-10-03T15:52:25.194Z,35.93
2018-10-03T15:54:53.536Z,38.55
2018-10-03T15:57:21.823Z,37.88
2018-10-03T15:59:50.119Z,39.45
2018-10-03T16:02:18.600Z,38.93
2018-10-03T16:04:46.932Z,38.04
2018-10-03T16:07:15.276Z,38.74
2018-10-03T16:09:43.724Z,40.60
2018-10-03T16:12:12.120Z,41.05
2018-10-03T16:14:40.383Z,43.42
2018-10-03T16:17:08.693Z,39.54
2018-10-03T16:19:37.186Z,48.61
2018-10-03T16:22:05.526Z,41.17
2018-10-03T16:24:33.882Z,39.90
2018-10-03T16:27:02.143Z,42.09
2018-10-03T16:29:30.463Z,41.35
2018-10-03T16:31:58.769Z,43.25
2018-10-03T16:34:27.078Z,51.00
2018-10-03T16:36:55.544Z,45.42
2018-10-03T16:39:23.853Z,43.11
2018-10-03T16:41:52.153Z,41.01
2018-10-03T16:44:20.473Z,39.97
2018-10-03T16:46:48.776Z,38.04
2018-10-03T16:49:17.137Z,35.23
2018-10-03T16:51:45.508Z,31.61
2018-10-03T16:54:14.125Z,36.62
2018-10-03T16:56:42.440Z,33.62
2018-10-03T16:59:10.743Z,35.58
2018-10-03T17:01:39.636Z,37.66
2018-10-03T17:04:08.238Z,38.41
2018-10-03T17:06:36.622Z,41.54
2018-10-03T17:09:06.644Z,43.04
2018-10-03T17:11:35.356Z,42.71
2018-10-03T17:14:14.825Z,44.48
2018-10-03T17:16:43.092Z,38.71
2018-10-03T17:19:11.424Z,38.62
2018-10-03T17:21:39.728Z,36.39
2018-10-03T17:24:08.372Z,32.71
2018-10-03T17:26:36.871Z,35.45
2018-10-03T17:29:05.158Z,34.24
2018-10-03T17:31:33.526Z,36.85
2018-10-03T17:34:02.012Z,38.13
2018-10-03T17:36:31.019Z,38.81
2018-10-03T17:39:00.160Z,37.44
2018-10-03T17:41:28.792Z,35.56
2018-10-03T17:43:57.307Z,32.55
2018-10-03T17:46:25.858Z,34.71
2018-10-03T17:48:54.486Z,34.92
2018-10-03T17:51:22.913Z,36.16
2018-10-03T17:53:51.341Z,33.21
2018-10-03T17:56:20.066Z,35.06
2018-10-03T17:58:48.420Z,34.20
2018-10-03T18:01:16.865Z,34.79
2018-10-03T18:03:45.257Z,33.37
2018-10-03T18:06:13.704Z,34.12
2018-10-03T18:08:42.399Z,34.17
2018-10-03T18:11:11.174Z,33.00
2018-10-03T18:13:39.589Z,33.86
2018-10-03T18:16:07.955Z,31.83
2018-10-03T18:18:36.864Z,34.03
2018-10-03T18:21:05.386Z,34.00
2018-10-03T18:23:33.706Z,32.77
2018-10-03T18:26:02.132Z,34.66
2018-10-03T18:28:30.416Z,35.04
2018-10-03T18:30:58.927Z,33.24
2018-10-03T18:33:27.250Z,34.03
2018-10-03T18:35:55.676Z,35.74
2018-10-03T18:38:24.153Z,35.21
2018-10-03T18:40:52.760Z,33.67
2018-10-03T18:43:21.078Z,34.19
2018-10-03T18:45:49.619Z,39.16
2018-10-03T18:48:17.987Z,40.76
2018-10-03T18:50:46.578Z,41.57
2018-10-03T18:53:15.000Z,44.06
2018-10-03T18:55:43.379Z,44.51
2018-10-03T18:58:11.874Z,43.49
2018-10-03T19:00:40.454Z,44.81
2018-10-03T19:03:08.856Z,45.50
2018-10-03T19:05:37.458Z,44.51
2018-10-03T19:08:05.823Z,46.64
2018-10-03T19:10:34.228Z,45.44
2018-10-03T19:13:02.588Z,45.68
2018-10-03T19:15:30.945Z,46.54
2018-10-03T19:17:59.452Z,45.89
2018-10-03T19:20:29.245Z,46.30
2018-10-03T19:35:26.777Z,48.85
2018-10-03T19:38:20.935Z,51.21
2018-10-03T19:43:54.237Z,51.59
2018-10-03T19:46:23.438Z,50.04
2018-10-03T19:48:53.673Z,49.57
2018-10-03T19:51:23.432Z,49.50
2018-10-03T19:53:56.366Z,48.71
2018-10-03T19:56:27.013Z,48.38
2018-10-03T19:58:56.308Z,48.60
2018-10-03T20:01:25.804Z,49.74
2018-10-03T20:03:54.959Z,49.69
2018-10-03T20:06:43.334Z,49.63
2018-10-03T20:09:18.027Z,49.52
2018-10-03T20:11:47.051Z,49.74
2018-10-03T20:14:17.733Z,50.45
2018-10-03T20:16:46.861Z,52.10
2018-10-03T20:19:15.557Z,50.25
2018-10-03T20:21:44.432Z,50.50
2018-10-03T20:24:18.908Z,50.65
2018-10-03T20:26:49.590Z,50.24
2018-10-03T20:29:19.680Z,51.44
2018-10-03T20:32:00.995Z,53.44
2018-10-03T20:34:30.154Z,55.08
2018-10-03T20:37:00.562Z,53.27
2018-10-03T20:39:29.443Z,53.69
2018-10-03T20:41:58.980Z,55.11
2018-10-03T20:44:27.760Z,53.09
2018-10-03T20:46:56.347Z,52.80
2018-10-03T20:49:25.370Z,53.62
2018-10-03T20:51:54.005Z,51.88
2018-10-03T20:54:24.810Z,52.45
2018-10-03T20:56:53.794Z,50.69
2018-10-03T20:59:27.444Z,51.36
2018-10-03T21:01:57.244Z,51.68
2018-10-03T21:04:25.933Z,52.00
2018-10-03T21:06:54.746Z,53.09
2018-10-03T21:09:25.578Z,52.66
2018-10-03T21:11:54.780Z,52.55
2018-10-03T21:14:29.644Z,53.71
2018-10-03T21:16:58.011Z,52.76
2018-10-03T21:19:26.471Z,53.42
2018-10-03T21:21:55.168Z,53.03
2018-10-03T21:24:24.799Z,51.35
2018-10-03T21:26:55.434Z,51.90
2018-10-03T21:29:25.170Z,54.38
2018-10-03T21:31:54.573Z,55.08
2018-10-03T21:34:24.398Z,52.74
2018-10-03T21:36:55.471Z,54.71
2018-10-03T21:39:32.505Z,54.64
2018-10-03T21:42:11.285Z,54.16
2018-10-03T21:44:40.743Z,54.94
2018-10-03T21:47:09.559Z,56.77
2018-10-03T21:49:38.071Z,54.28
2018-10-03T21:52:06.842Z,54.31
2018-10-03T21:54:59.180Z,53.01
2018-10-03T21:57:27.926Z,52.77
2018-10-03T22:00:04.325Z,53.19
2018-10-03T22:02:32.928Z,53.07
2018-10-03T22:05:16.017Z,53.33
2018-10-03T22:07:44.583Z,52.99
2018-10-03T22:10:13.275Z,52.97
2018-10-03T22:12:41.869Z,54.18
2018-10-03T22:15:28.406Z,53.36
2018-10-03T22:17:57.021Z,52.49
2018-10-03T22:20:25.844Z,51.68
2018-10-03T22:25:47.037Z,52.00
2018-10-03T22:28:15.584Z,52.65
2018-10-03T22:30:44.076Z,51.63
2018-10-03T22:33:12.649Z,52.17
2018-10-03T22:35:41.198Z,52.32
2018-10-03T22:38:09.862Z,52.99
2018-10-03T22:40:38.462Z,52.52
2018-10-03T22:43:06.754Z,52.66
2018-10-03T22:45:35.052Z,52.85
2018-10-03T22:48:03.348Z,52.23
2018-10-03T22:50:31.678Z,52.30
2018-10-03T22:53:00.207Z,53.09
2018-10-03T22:55:28.660Z,52.84
2018-10-03T22:58:01.716Z,52.71
2018-10-03T23:00:30.192Z,52.41
2018-10-03T23:02:58.645Z,53.39
2018-10-03T23:05:27.244Z,52.99
2018-10-03T23:07:55.618Z,54.41
2018-10-03T23:10:27.479Z,53.60
2018-10-03T23:12:55.980Z,54.18
2018-10-03T23:15:24.682Z,55.30
2018-10-03T23:17:53.328Z,55.02
2018-10-03T23:20:21.898Z,54.25
2018-10-03T23:22:50.490Z,55.76
2018-10-03T23:25:19.238Z,55.62
2018-10-03T23:28:09.988Z,55.79
2018-10-03T23:30:38.577Z,57.37
2018-10-03T23:33:30.386Z,57.91
2018-10-03T23:35:59.001Z,57.44
2018-10-03T23:38:27.449Z,57.75
2018-10-03T23:40:56.075Z,57.74
2018-10-03T23:43:24.603Z,56.92
2018-10-03T23:45:53.209Z,57.85
2018-10-03T23:48:21.841Z,57.47
2018-10-03T23:50:50.471Z,57.30
2018-10-03T23:56:30.473Z,58.16
2018-10-03T23:58:59.012Z,58.53
